sensor_id;sensor_type;location;lat;lon;timestamp;temperature;humidity
14079;DHT22;7115;50.150;8.568;2022-11-20T00:00:17;4.50;99.90
14079;DHT22;7115;50.150;8.568;2022-11-20T00:02:44;4.50;99.90
14079;DHT22;7115;50.150;8.568;2022-11-20T00:05:11;4.50;99.90
14079;DHT22;7115;50.150;8.568;2022-11-20T00:07:38;4.60;99.90
14079;DHT22;7115;50.150;8.568;2022-11-20T00:10:05;4.50;99.90
14079;DHT22;7115;50.150;8.568;2022-11-20T00:12:34;4.50;99.90
14079;DHT22;7115;50.150;8.568;2022-11-20T00:15:01;4.50;99.90
14079;DHT22;7115;50.150;8.568;2022-11-20T00:17:28;4.60;99.90
14079;DHT22;7115;50.150;8.568;2022-11-20T00:19:55;4.60;99.90
14079;DHT22;7115;50.150;8.568;2022-11-20T00:22:22;4.60;99.90
14079;DHT22;7115;50.150;8.568;2022-11-20T00:24:49;4.60;99.90
14079;DHT22;7115;50.150;8.568;2022-11-20T00:27:16;4.70;99.90
14079;DHT22;7115;50.150;8.568;2022-11-20T00:29:44;4.70;99.90
14079;DHT22;7115;50.150;8.568;2022-11-20T00:32:12;4.70;99.90
14079;DHT22;7115;50.150;8.568;2022-11-20T00:34:39;4.80;99.90
14079;DHT22;7115;50.150;8.568;2022-11-20T00:37:05;4.80;99.90
14079;DHT22;7115;50.150;8.568;2022-11-20T00:39:32;4.80;99.90
14079;DHT22;7115;50.150;8.568;2022-11-20T00:41:59;4.80;99.90
14079;DHT22;7115;50.150;8.568;2022-11-20T00:44:26;4.80;99.90
14079;DHT22;7115;50.150;8.568;2022-11-20T00:46:55;4.80;99.90
14079;DHT22;7115;50.150;8.568;2022-11-20T00:49:22;4.80;99.90
14079;DHT22;7115;50.150;8.568;2022-11-20T00:51:49;4.80;99.90
14079;DHT22;7115;50.150;8.568;2022-11-20T00:54:16;4.80;99.90
14079;DHT22;7115;50.150;8.568;2022-11-20T00:56:43;4.80;99.90
14079;DHT22;7115;50.150;8.568;2022-11-20T00:59:11;4.70;99.90
14079;DHT22;7115;50.150;8.568;2022-11-20T01:01:38;4.70;99.90
14079;DHT22;7115;50.150;8.568;2022-11-20T01:04:06;4.70;99.90
14079;DHT22;7115;50.150;8.568;2022-11-20T01:06:35;4.70;99.90
14079;DHT22;7115;50.150;8.568;2022-11-20T01:09:04;4.70;99.90
14079;DHT22;7115;50.150;8.568;2022-11-20T01:11:33;4.60;99.90
14079;DHT22;7115;50.150;8.568;2022-11-20T01:14:02;4.60;99.90
14079;DHT22;7115;50.150;8.568;2022-11-20T01:16:31;4.60;99.90
14079;DHT22;7115;50.150;8.568;2022-11-20T01:19:02;4.70;99.90
14079;DHT22;7115;50.150;8.568;2022-11-20T01:21:32;4.50;99.90
14079;DHT22;7115;50.150;8.568;2022-11-20T01:24:00;4.50;99.90
14079;DHT22;7115;50.150;8.568;2022-11-20T01:26:29;4.50;99.90
14079;DHT22;7115;50.150;8.568;2022-11-20T01:28:57;4.50;99.90
14079;DHT22;7115;50.150;8.568;2022-11-20T01:31:26;4.50;99.90
14079;DHT22;7115;50.150;8.568;2022-11-20T01:33:55;4.50;99.90
14079;DHT22;7115;50.150;8.568;2022-11-20T01:36:24;4.50;99.90
14079;DHT22;7115;50.150;8.568;2022-11-20T01:38:54;4.50;99.90
14079;DHT22;7115;50.150;8.568;2022-11-20T01:41:22;4.50;99.90
14079;DHT22;7115;50.150;8.568;2022-11-20T01:44:11;4.50;99.90
14079;DHT22;7115;50.150;8.568;2022-11-20T01:46:41;4.40;99.90
14079;DHT22;7115;50.150;8.568;2022-11-20T01:49:13;4.40;99.90
14079;DHT22;7115;50.150;8.568;2022-11-20T01:51:47;4.40;99.90
14079;DHT22;7115;50.150;8.568;2022-11-20T01:54:19;4.40;99.90
14079;DHT22;7115;50.150;8.568;2022-11-20T01:56:47;4.40;99.90
14079;DHT22;7115;50.150;8.568;2022-11-20T01:59:16;4.40;99.90
14079;DHT22;7115;50.150;8.568;2022-11-20T02:01:44;4.30;99.90
14079;DHT22;7115;50.150;8.568;2022-11-20T02:04:13;4.30;99.90
14079;DHT22;7115;50.150;8.568;2022-11-20T02:06:43;4.30;99.90
14079;DHT22;7115;50.150;8.568;2022-11-20T02:09:13;4.30;99.90
14079;DHT22;7115;50.150;8.568;2022-11-20T02:11:42;4.30;99.90
14079;DHT22;7115;50.150;8.568;2022-11-20T02:14:10;4.30;99.90
14079;DHT22;7115;50.150;8.568;2022-11-20T02:16:40;4.30;99.90
14079;DHT22;7115;50.150;8.568;2022-11-20T02:19:16;4.30;99.90
14079;DHT22;7115;50.150;8.568;2022-11-20T02:21:50;4.20;99.90
14079;DHT22;7115;50.150;8.568;2022-11-20T02:24:22;4.20;99.90
14079;DHT22;7115;50.150;8.568;2022-11-20T02:26:51;4.20;99.90
14079;DHT22;7115;50.150;8.568;2022-11-20T02:29:23;4.10;99.90
14079;DHT22;7115;50.150;8.568;2022-11-20T02:31:51;4.10;99.90
14079;DHT22;7115;50.150;8.568;2022-11-20T02:34:20;4.10;99.90
14079;DHT22;7115;50.150;8.568;2022-11-20T02:36:48;4.00;99.90
14079;DHT22;7115;50.150;8.568;2022-11-20T02:39:16;4.00;99.90
14079;DHT22;7115;50.150;8.568;2022-11-20T02:41:45;4.10;99.90
14079;DHT22;7115;50.150;8.568;2022-11-20T02:44:12;4.10;99.90
14079;DHT22;7115;50.150;8.568;2022-11-20T02:46:39;4.10;99.90
14079;DHT22;7115;50.150;8.568;2022-11-20T02:49:06;4.10;99.90
14079;DHT22;7115;50.150;8.568;2022-11-20T02:51:33;4.10;99.90
14079;DHT22;7115;50.150;8.568;2022-11-20T02:54:00;4.20;99.90
14079;DHT22;7115;50.150;8.568;2022-11-20T02:56:27;4.20;99.90
14079;DHT22;7115;50.150;8.568;2022-11-20T02:58:56;4.20;99.90
14079;DHT22;7115;50.150;8.568;2022-11-20T03:01:23;4.20;99.90
14079;DHT22;7115;50.150;8.568;2022-11-20T03:03:50;4.20;99.90
14079;DHT22;7115;50.150;8.568;2022-11-20T03:06:17;4.20;99.90
14079;DHT22;7115;50.150;8.568;2022-11-20T03:08:44;4.20;99.90
14079;DHT22;7115;50.150;8.568;2022-11-20T03:11:10;4.20;99.90
14079;DHT22;7115;50.150;8.568;2022-11-20T03:13:38;4.20;99.90
14079;DHT22;7115;50.150;8.568;2022-11-20T03:16:08;4.10;99.90
14079;DHT22;7115;50.150;8.568;2022-11-20T03:18:35;4.10;99.90
14079;DHT22;7115;50.150;8.568;2022-11-20T03:21:03;4.00;99.90
14079;DHT22;7115;50.150;8.568;2022-11-20T03:23:31;4.00;99.90
14079;DHT22;7115;50.150;8.568;2022-11-20T03:26:12;4.00;99.90
14079;DHT22;7115;50.150;8.568;2022-11-20T03:28:40;4.10;99.90
14079;DHT22;7115;50.150;8.568;2022-11-20T03:31:10;4.10;99.90
14079;DHT22;7115;50.150;8.568;2022-11-20T03:33:38;4.00;99.90
14079;DHT22;7115;50.150;8.568;2022-11-20T03:36:06;4.00;99.90
14079;DHT22;7115;50.150;8.568;2022-11-20T03:38:34;4.00;99.90
14079;DHT22;7115;50.150;8.568;2022-11-20T03:41:02;4.00;99.90
14079;DHT22;7115;50.150;8.568;2022-11-20T03:43:30;4.00;99.90
14079;DHT22;7115;50.150;8.568;2022-11-20T03:45:57;4.00;99.90
14079;DHT22;7115;50.150;8.568;2022-11-20T03:48:26;3.90;99.90
14079;DHT22;7115;50.150;8.568;2022-11-20T03:51:05;4.00;99.90
14079;DHT22;7115;50.150;8.568;2022-11-20T03:53:32;4.00;99.90
14079;DHT22;7115;50.150;8.568;2022-11-20T03:55:59;4.00;99.90
14079;DHT22;7115;50.150;8.568;2022-11-20T03:58:26;4.00;99.90
14079;DHT22;7115;50.150;8.568;2022-11-20T04:00:53;4.00;99.90
14079;DHT22;7115;50.150;8.568;2022-11-20T04:03:20;4.00;99.90
14079;DHT22;7115;50.150;8.568;2022-11-20T04:05:48;4.00;99.90
14079;DHT22;7115;50.150;8.568;2022-11-20T04:08:15;3.90;99.90
14079;DHT22;7115;50.150;8.568;2022-11-20T04:10:42;3.90;99.90
14079;DHT22;7115;50.150;8.568;2022-11-20T04:13:09;3.90;99.90
14079;DHT22;7115;50.150;8.568;2022-11-20T04:15:36;3.90;99.90
14079;DHT22;7115;50.150;8.568;2022-11-20T04:18:04;3.90;99.90
14079;DHT22;7115;50.150;8.568;2022-11-20T04:20:31;3.90;99.90
14079;DHT22;7115;50.150;8.568;2022-11-20T04:22:59;3.80;99.90
14079;DHT22;7115;50.150;8.568;2022-11-20T04:25:26;3.80;99.90
14079;DHT22;7115;50.150;8.568;2022-11-20T04:27:54;3.80;99.90
14079;DHT22;7115;50.150;8.568;2022-11-20T04:30:21;3.70;99.90
14079;DHT22;7115;50.150;8.568;2022-11-20T04:32:47;3.80;99.90
14079;DHT22;7115;50.150;8.568;2022-11-20T04:35:15;3.80;99.90
14079;DHT22;7115;50.150;8.568;2022-11-20T04:37:41;3.80;99.90
14079;DHT22;7115;50.150;8.568;2022-11-20T04:40:11;3.80;99.90
14079;DHT22;7115;50.150;8.568;2022-11-20T04:42:38;3.80;99.90
14079;DHT22;7115;50.150;8.568;2022-11-20T04:45:06;3.80;99.90
14079;DHT22;7115;50.150;8.568;2022-11-20T04:47:33;3.80;99.90
14079;DHT22;7115;50.150;8.568;2022-11-20T04:49:59;3.80;99.90
14079;DHT22;7115;50.150;8.568;2022-11-20T04:52:26;3.90;99.90
14079;DHT22;7115;50.150;8.568;2022-11-20T04:54:53;3.90;99.90
14079;DHT22;7115;50.150;8.568;2022-11-20T04:57:22;3.90;99.90
14079;DHT22;7115;50.150;8.568;2022-11-20T04:59:49;3.80;99.90
14079;DHT22;7115;50.150;8.568;2022-11-20T05:02:16;3.80;99.90
14079;DHT22;7115;50.150;8.568;2022-11-20T05:04:43;3.80;99.90
14079;DHT22;7115;50.150;8.568;2022-11-20T05:07:10;3.80;99.90
14079;DHT22;7115;50.150;8.568;2022-11-20T05:09:37;3.80;99.90
14079;DHT22;7115;50.150;8.568;2022-11-20T05:12:04;3.80;99.90
14079;DHT22;7115;50.150;8.568;2022-11-20T05:14:34;3.80;99.90
14079;DHT22;7115;50.150;8.568;2022-11-20T05:17:01;3.80;99.90
14079;DHT22;7115;50.150;8.568;2022-11-20T05:19:28;3.80;99.90
14079;DHT22;7115;50.150;8.568;2022-11-20T05:21:55;3.80;99.90
14079;DHT22;7115;50.150;8.568;2022-11-20T05:24:22;3.80;99.90
14079;DHT22;7115;50.150;8.568;2022-11-20T05:26:49;3.80;99.90
14079;DHT22;7115;50.150;8.568;2022-11-20T05:29:16;3.80;99.90
14079;DHT22;7115;50.150;8.568;2022-11-20T05:31:44;3.80;99.90
14079;DHT22;7115;50.150;8.568;2022-11-20T05:34:11;3.80;99.90
14079;DHT22;7115;50.150;8.568;2022-11-20T05:36:38;3.80;99.90
14079;DHT22;7115;50.150;8.568;2022-11-20T05:39:05;3.80;99.90
14079;DHT22;7115;50.150;8.568;2022-11-20T05:41:33;3.80;99.90
14079;DHT22;7115;50.150;8.568;2022-11-20T05:44:00;3.90;99.90
14079;DHT22;7115;50.150;8.568;2022-11-20T05:46:27;3.90;99.90
14079;DHT22;7115;50.150;8.568;2022-11-20T05:48:57;3.90;99.90
14079;DHT22;7115;50.150;8.568;2022-11-20T05:51:27;3.90;99.90
14079;DHT22;7115;50.150;8.568;2022-11-20T05:53:55;3.90;99.90
14079;DHT22;7115;50.150;8.568;2022-11-20T05:56:23;3.90;99.90
14079;DHT22;7115;50.150;8.568;2022-11-20T05:58:50;3.90;99.90
14079;DHT22;7115;50.150;8.568;2022-11-20T06:01:18;4.00;99.90
14079;DHT22;7115;50.150;8.568;2022-11-20T06:03:46;4.00;99.90
14079;DHT22;7115;50.150;8.568;2022-11-20T06:06:17;4.00;99.90
14079;DHT22;7115;50.150;8.568;2022-11-20T06:08:45;4.00;99.90
14079;DHT22;7115;50.150;8.568;2022-11-20T06:11:13;4.00;99.90
14079;DHT22;7115;50.150;8.568;2022-11-20T06:13:41;4.10;99.90
14079;DHT22;7115;50.150;8.568;2022-11-20T06:16:09;4.10;99.90
14079;DHT22;7115;50.150;8.568;2022-11-20T06:18:37;4.00;99.90
14079;DHT22;7115;50.150;8.568;2022-11-20T06:21:06;4.00;99.90
14079;DHT22;7115;50.150;8.568;2022-11-20T06:23:35;4.00;99.90
14079;DHT22;7115;50.150;8.568;2022-11-20T06:26:03;4.00;99.90
14079;DHT22;7115;50.150;8.568;2022-11-20T06:28:31;4.00;99.90
14079;DHT22;7115;50.150;8.568;2022-11-20T06:30:58;4.00;99.90
14079;DHT22;7115;50.150;8.568;2022-11-20T06:33:25;3.90;99.90
14079;DHT22;7115;50.150;8.568;2022-11-20T06:35:52;3.90;99.90
14079;DHT22;7115;50.150;8.568;2022-11-20T06:38:28;3.90;99.90
14079;DHT22;7115;50.150;8.568;2022-11-20T06:40:56;3.90;99.90
14079;DHT22;7115;50.150;8.568;2022-11-20T06:43:23;4.00;99.90
14079;DHT22;7115;50.150;8.568;2022-11-20T06:45:52;3.90;99.90
14079;DHT22;7115;50.150;8.568;2022-11-20T06:48:19;3.80;99.90
14079;DHT22;7115;50.150;8.568;2022-11-20T06:50:47;3.80;99.90
14079;DHT22;7115;50.150;8.568;2022-11-20T06:53:13;3.70;99.90
14079;DHT22;7115;50.150;8.568;2022-11-20T06:55:42;3.70;99.90
14079;DHT22;7115;50.150;8.568;2022-11-20T06:58:14;3.70;99.90
14079;DHT22;7115;50.150;8.568;2022-11-20T07:00:41;3.70;99.90
14079;DHT22;7115;50.150;8.568;2022-11-20T07:03:11;3.70;99.90
14079;DHT22;7115;50.150;8.568;2022-11-20T07:05:38;3.70;99.90
14079;DHT22;7115;50.150;8.568;2022-11-20T07:08:05;3.70;99.90
14079;DHT22;7115;50.150;8.568;2022-11-20T07:10:33;3.70;99.90
14079;DHT22;7115;50.150;8.568;2022-11-20T07:13:00;3.70;99.90
14079;DHT22;7115;50.150;8.568;2022-11-20T07:15:29;3.80;99.90
14079;DHT22;7115;50.150;8.568;2022-11-20T07:17:58;3.80;99.90
14079;DHT22;7115;50.150;8.568;2022-11-20T07:20:25;3.70;99.90
14079;DHT22;7115;50.150;8.568;2022-11-20T07:22:53;3.60;99.90
14079;DHT22;7115;50.150;8.568;2022-11-20T07:25:21;3.60;99.90
14079;DHT22;7115;50.150;8.568;2022-11-20T07:27:48;3.40;99.90
14079;DHT22;7115;50.150;8.568;2022-11-20T07:30:15;3.40;99.90
14079;DHT22;7115;50.150;8.568;2022-11-20T07:32:46;3.30;99.90
14079;DHT22;7115;50.150;8.568;2022-11-20T07:35:13;3.30;99.90
14079;DHT22;7115;50.150;8.568;2022-11-20T07:37:40;3.40;99.90
14079;DHT22;7115;50.150;8.568;2022-11-20T07:40:07;3.40;99.90
14079;DHT22;7115;50.150;8.568;2022-11-20T07:42:34;3.50;99.90
14079;DHT22;7115;50.150;8.568;2022-11-20T07:45:01;3.50;99.90
14079;DHT22;7115;50.150;8.568;2022-11-20T07:47:28;3.60;99.90
14079;DHT22;7115;50.150;8.568;2022-11-20T07:49:57;3.60;99.90
14079;DHT22;7115;50.150;8.568;2022-11-20T07:52:24;3.70;99.90
14079;DHT22;7115;50.150;8.568;2022-11-20T07:54:50;3.80;99.90
14079;DHT22;7115;50.150;8.568;2022-11-20T07:57:17;3.80;99.90
14079;DHT22;7115;50.150;8.568;2022-11-20T07:59:45;3.90;99.90
14079;DHT22;7115;50.150;8.568;2022-11-20T08:02:12;3.90;99.90
14079;DHT22;7115;50.150;8.568;2022-11-20T08:04:39;4.00;99.90
14079;DHT22;7115;50.150;8.568;2022-11-20T08:07:08;4.10;99.90
14079;DHT22;7115;50.150;8.568;2022-11-20T08:09:35;4.10;99.90
14079;DHT22;7115;50.150;8.568;2022-11-20T08:12:02;4.10;99.90
14079;DHT22;7115;50.150;8.568;2022-11-20T08:14:47;4.20;99.90
14079;DHT22;7115;50.150;8.568;2022-11-20T08:17:14;4.20;99.90
14079;DHT22;7115;50.150;8.568;2022-11-20T08:19:41;4.20;99.90
14079;DHT22;7115;50.150;8.568;2022-11-20T08:22:09;4.20;99.90
14079;DHT22;7115;50.150;8.568;2022-11-20T08:24:36;4.20;99.90
14079;DHT22;7115;50.150;8.568;2022-11-20T08:27:03;4.30;99.90
14079;DHT22;7115;50.150;8.568;2022-11-20T08:29:30;4.30;99.90
14079;DHT22;7115;50.150;8.568;2022-11-20T08:31:57;4.30;99.90
14079;DHT22;7115;50.150;8.568;2022-11-20T08:34:24;4.30;99.90
14079;DHT22;7115;50.150;8.568;2022-11-20T08:36:51;4.40;99.90
14079;DHT22;7115;50.150;8.568;2022-11-20T08:39:19;4.40;99.90
14079;DHT22;7115;50.150;8.568;2022-11-20T08:41:47;4.50;99.90
14079;DHT22;7115;50.150;8.568;2022-11-20T08:44:13;4.50;99.90
14079;DHT22;7115;50.150;8.568;2022-11-20T08:46:41;4.40;99.90
14079;DHT22;7115;50.150;8.568;2022-11-20T08:49:11;4.40;99.90
14079;DHT22;7115;50.150;8.568;2022-11-20T08:51:38;4.30;99.90
14079;DHT22;7115;50.150;8.568;2022-11-20T08:54:06;4.30;99.90
14079;DHT22;7115;50.150;8.568;2022-11-20T08:56:35;4.30;99.90
14079;DHT22;7115;50.150;8.568;2022-11-20T08:59:02;4.40;99.90
14079;DHT22;7115;50.150;8.568;2022-11-20T09:01:49;4.40;99.90
14079;DHT22;7115;50.150;8.568;2022-11-20T09:04:16;4.40;99.90
14079;DHT22;7115;50.150;8.568;2022-11-20T09:06:43;4.40;99.90
14079;DHT22;7115;50.150;8.568;2022-11-20T09:09:10;4.50;99.90
14079;DHT22;7115;50.150;8.568;2022-11-20T09:11:39;4.40;99.90
14079;DHT22;7115;50.150;8.568;2022-11-20T09:14:06;4.50;99.90
14079;DHT22;7115;50.150;8.568;2022-11-20T09:16:33;4.50;99.90
14079;DHT22;7115;50.150;8.568;2022-11-20T09:19:00;4.50;99.90
14079;DHT22;7115;50.150;8.568;2022-11-20T09:21:47;4.60;99.90
14079;DHT22;7115;50.150;8.568;2022-11-20T09:24:14;4.70;99.90
14079;DHT22;7115;50.150;8.568;2022-11-20T09:26:43;5.10;99.90
14079;DHT22;7115;50.150;8.568;2022-11-20T09:29:11;5.50;99.90
14079;DHT22;7115;50.150;8.568;2022-11-20T09:31:38;5.80;99.90
14079;DHT22;7115;50.150;8.568;2022-11-20T09:34:05;6.00;99.90
14079;DHT22;7115;50.150;8.568;2022-11-20T09:36:34;6.10;99.90
14079;DHT22;7115;50.150;8.568;2022-11-20T09:39:01;6.30;99.90
14079;DHT22;7115;50.150;8.568;2022-11-20T09:41:52;6.50;99.90
14079;DHT22;7115;50.150;8.568;2022-11-20T09:44:36;6.70;99.90
14079;DHT22;7115;50.150;8.568;2022-11-20T09:47:08;6.90;99.90
14079;DHT22;7115;50.150;8.568;2022-11-20T09:49:53;6.90;99.90
14079;DHT22;7115;50.150;8.568;2022-11-20T09:52:33;7.00;99.90
14079;DHT22;7115;50.150;8.568;2022-11-20T09:55:07;6.90;99.90
14079;DHT22;7115;50.150;8.568;2022-11-20T09:57:38;6.90;99.90
14079;DHT22;7115;50.150;8.568;2022-11-20T10:00:10;7.00;99.90
14079;DHT22;7115;50.150;8.568;2022-11-20T10:02:42;7.10;99.90
14079;DHT22;7115;50.150;8.568;2022-11-20T10:05:15;7.40;99.90
14079;DHT22;7115;50.150;8.568;2022-11-20T10:07:48;7.70;99.90
14079;DHT22;7115;50.150;8.568;2022-11-20T10:10:21;7.70;99.90
14079;DHT22;7115;50.150;8.568;2022-11-20T10:13:02;7.50;99.90
14079;DHT22;7115;50.150;8.568;2022-11-20T10:15:36;7.10;99.90
14079;DHT22;7115;50.150;8.568;2022-11-20T10:18:25;6.80;99.90
14079;DHT22;7115;50.150;8.568;2022-11-20T10:21:07;6.40;99.90
14079;DHT22;7115;50.150;8.568;2022-11-20T10:23:56;6.20;99.90
14079;DHT22;7115;50.150;8.568;2022-11-20T10:26:31;6.00;99.90
14079;DHT22;7115;50.150;8.568;2022-11-20T10:29:11;5.90;99.90
14079;DHT22;7115;50.150;8.568;2022-11-20T10:31:41;5.80;99.90
14079;DHT22;7115;50.150;8.568;2022-11-20T10:34:20;5.70;99.90
14079;DHT22;7115;50.150;8.568;2022-11-20T10:36:53;5.50;99.90
14079;DHT22;7115;50.150;8.568;2022-11-20T10:39:28;5.50;99.90
14079;DHT22;7115;50.150;8.568;2022-11-20T10:41:59;5.40;99.90
14079;DHT22;7115;50.150;8.568;2022-11-20T10:44:29;5.30;99.90
14079;DHT22;7115;50.150;8.568;2022-11-20T10:47:21;5.30;99.90
14079;DHT22;7115;50.150;8.568;2022-11-20T10:49:52;5.30;99.90
14079;DHT22;7115;50.150;8.568;2022-11-20T10:52:25;5.30;99.90
14079;DHT22;7115;50.150;8.568;2022-11-20T10:54:58;5.30;99.90
14079;DHT22;7115;50.150;8.568;2022-11-20T10:57:41;5.30;99.90
14079;DHT22;7115;50.150;8.568;2022-11-20T11:00:14;5.30;99.90
14079;DHT22;7115;50.150;8.568;2022-11-20T11:02:47;5.30;99.90
14079;DHT22;7115;50.150;8.568;2022-11-20T11:05:33;5.30;99.90
14079;DHT22;7115;50.150;8.568;2022-11-20T11:08:07;5.30;99.90
14079;DHT22;7115;50.150;8.568;2022-11-20T11:10:39;5.30;99.90
14079;DHT22;7115;50.150;8.568;2022-11-20T11:13:19;5.30;99.90
14079;DHT22;7115;50.150;8.568;2022-11-20T11:15:48;5.40;99.90
14079;DHT22;7115;50.150;8.568;2022-11-20T11:18:23;5.40;99.90
14079;DHT22;7115;50.150;8.568;2022-11-20T11:20:51;5.50;99.90
14079;DHT22;7115;50.150;8.568;2022-11-20T11:23:31;5.60;99.90
14079;DHT22;7115;50.150;8.568;2022-11-20T11:26:01;5.70;99.90
14079;DHT22;7115;50.150;8.568;2022-11-20T11:28:28;5.80;99.90
14079;DHT22;7115;50.150;8.568;2022-11-20T11:30:56;5.80;99.90
14079;DHT22;7115;50.150;8.568;2022-11-20T11:33:25;5.80;99.90
14079;DHT22;7115;50.150;8.568;2022-11-20T11:35:54;5.80;99.90
14079;DHT22;7115;50.150;8.568;2022-11-20T11:38:29;5.70;99.90
14079;DHT22;7115;50.150;8.568;2022-11-20T11:40:57;5.70;99.90
14079;DHT22;7115;50.150;8.568;2022-11-20T11:43:26;5.80;99.90
14079;DHT22;7115;50.150;8.568;2022-11-20T11:46:30;5.80;99.90
14079;DHT22;7115;50.150;8.568;2022-11-20T11:48:59;5.90;99.90
14079;DHT22;7115;50.150;8.568;2022-11-20T11:51:34;6.00;99.90
14079;DHT22;7115;50.150;8.568;2022-11-20T11:54:13;6.10;99.90
14079;DHT22;7115;50.150;8.568;2022-11-20T11:56:42;6.10;99.90
14079;DHT22;7115;50.150;8.568;2022-11-20T11:59:14;6.10;99.90
14079;DHT22;7115;50.150;8.568;2022-11-20T12:01:46;6.10;99.90
14079;DHT22;7115;50.150;8.568;2022-11-20T12:04:20;6.20;99.90
14079;DHT22;7115;50.150;8.568;2022-11-20T12:07:07;6.10;99.90
14079;DHT22;7115;50.150;8.568;2022-11-20T12:09:57;6.10;99.90
14079;DHT22;7115;50.150;8.568;2022-11-20T12:12:29;6.10;99.90
14079;DHT22;7115;50.150;8.568;2022-11-20T12:14:57;6.00;99.90
14079;DHT22;7115;50.150;8.568;2022-11-20T12:17:27;6.10;99.90
14079;DHT22;7115;50.150;8.568;2022-11-20T12:19:54;6.10;99.90
14079;DHT22;7115;50.150;8.568;2022-11-20T12:22:28;6.10;99.90
14079;DHT22;7115;50.150;8.568;2022-11-20T12:25:00;6.10;99.90
14079;DHT22;7115;50.150;8.568;2022-11-20T12:27:40;6.10;99.90
14079;DHT22;7115;50.150;8.568;2022-11-20T12:30:12;6.10;99.90
14079;DHT22;7115;50.150;8.568;2022-11-20T12:32:59;6.00;99.90
14079;DHT22;7115;50.150;8.568;2022-11-20T12:35:51;6.00;99.90
14079;DHT22;7115;50.150;8.568;2022-11-20T12:39:06;6.00;99.90
14079;DHT22;7115;50.150;8.568;2022-11-20T12:41:57;6.00;99.90
14079;DHT22;7115;50.150;8.568;2022-11-20T12:45:14;6.00;99.90
14079;DHT22;7115;50.150;8.568;2022-11-20T12:47:56;5.90;99.90
14079;DHT22;7115;50.150;8.568;2022-11-20T12:50:32;5.90;99.90
14079;DHT22;7115;50.150;8.568;2022-11-20T12:53:27;6.00;99.90
14079;DHT22;7115;50.150;8.568;2022-11-20T12:56:03;6.00;99.90
14079;DHT22;7115;50.150;8.568;2022-11-20T12:58:39;6.00;99.90
14079;DHT22;7115;50.150;8.568;2022-11-20T13:01:20;6.00;99.90
14079;DHT22;7115;50.150;8.568;2022-11-20T13:04:19;6.00;99.90
14079;DHT22;7115;50.150;8.568;2022-11-20T13:06:50;6.10;99.90
14079;DHT22;7115;50.150;8.568;2022-11-20T13:09:19;6.10;99.90
14079;DHT22;7115;50.150;8.568;2022-11-20T13:11:51;6.10;99.90
14079;DHT22;7115;50.150;8.568;2022-11-20T13:14:30;6.10;99.90
14079;DHT22;7115;50.150;8.568;2022-11-20T13:17:04;6.10;99.90
14079;DHT22;7115;50.150;8.568;2022-11-20T13:19:34;6.10;99.90
14079;DHT22;7115;50.150;8.568;2022-11-20T13:22:01;6.10;99.90
14079;DHT22;7115;50.150;8.568;2022-11-20T13:24:31;6.10;99.90
14079;DHT22;7115;50.150;8.568;2022-11-20T13:27:17;6.10;99.90
14079;DHT22;7115;50.150;8.568;2022-11-20T13:29:59;6.10;99.90
14079;DHT22;7115;50.150;8.568;2022-11-20T13:32:28;6.10;99.90
14079;DHT22;7115;50.150;8.568;2022-11-20T13:35:02;6.20;99.90
14079;DHT22;7115;50.150;8.568;2022-11-20T13:37:32;6.20;99.90
14079;DHT22;7115;50.150;8.568;2022-11-20T13:40:12;6.20;99.90
14079;DHT22;7115;50.150;8.568;2022-11-20T13:42:44;6.30;99.90
14079;DHT22;7115;50.150;8.568;2022-11-20T13:45:21;6.30;99.90
14079;DHT22;7115;50.150;8.568;2022-11-20T13:47:49;6.30;99.90
14079;DHT22;7115;50.150;8.568;2022-11-20T13:50:25;6.30;99.90
14079;DHT22;7115;50.150;8.568;2022-11-20T13:53:05;6.30;99.90
14079;DHT22;7115;50.150;8.568;2022-11-20T13:55:38;6.20;99.90
14079;DHT22;7115;50.150;8.568;2022-11-20T13:58:22;6.20;99.90
14079;DHT22;7115;50.150;8.568;2022-11-20T14:00:57;6.20;99.90
14079;DHT22;7115;50.150;8.568;2022-11-20T14:03:25;6.10;99.90
14079;DHT22;7115;50.150;8.568;2022-11-20T14:06:24;6.10;99.90
14079;DHT22;7115;50.150;8.568;2022-11-20T14:08:53;6.20;99.90
14079;DHT22;7115;50.150;8.568;2022-11-20T14:11:21;6.10;99.90
14079;DHT22;7115;50.150;8.568;2022-11-20T14:13:57;6.00;99.90
14079;DHT22;7115;50.150;8.568;2022-11-20T14:16:25;6.00;99.90
14079;DHT22;7115;50.150;8.568;2022-11-20T14:18:53;6.00;99.90
14079;DHT22;7115;50.150;8.568;2022-11-20T14:21:25;6.00;99.90
14079;DHT22;7115;50.150;8.568;2022-11-20T14:23:53;6.10;99.90
14079;DHT22;7115;50.150;8.568;2022-11-20T14:26:20;6.10;99.90
14079;DHT22;7115;50.150;8.568;2022-11-20T14:28:49;6.20;99.90
14079;DHT22;7115;50.150;8.568;2022-11-20T14:31:23;6.20;99.90
14079;DHT22;7115;50.150;8.568;2022-11-20T14:33:51;6.30;99.90
14079;DHT22;7115;50.150;8.568;2022-11-20T14:36:22;6.40;99.90
14079;DHT22;7115;50.150;8.568;2022-11-20T14:38:52;6.50;99.90
14079;DHT22;7115;50.150;8.568;2022-11-20T14:41:21;6.50;99.90
14079;DHT22;7115;50.150;8.568;2022-11-20T14:43:53;6.60;99.90
14079;DHT22;7115;50.150;8.568;2022-11-20T14:46:21;6.60;99.90
14079;DHT22;7115;50.150;8.568;2022-11-20T14:48:51;6.70;99.90
14079;DHT22;7115;50.150;8.568;2022-11-20T14:51:27;6.80;99.90
14079;DHT22;7115;50.150;8.568;2022-11-20T14:54:08;6.80;99.90
14079;DHT22;7115;50.150;8.568;2022-11-20T14:56:35;6.80;99.90
14079;DHT22;7115;50.150;8.568;2022-11-20T14:59:04;6.80;99.90
14079;DHT22;7115;50.150;8.568;2022-11-20T15:01:32;6.80;99.90
14079;DHT22;7115;50.150;8.568;2022-11-20T15:04:01;6.80;99.90
14079;DHT22;7115;50.150;8.568;2022-11-20T15:06:29;6.70;99.90
14079;DHT22;7115;50.150;8.568;2022-11-20T15:08:58;6.70;99.90
14079;DHT22;7115;50.150;8.568;2022-11-20T15:11:31;6.70;99.90
14079;DHT22;7115;50.150;8.568;2022-11-20T15:14:02;6.70;99.90
14079;DHT22;7115;50.150;8.568;2022-11-20T15:16:31;6.60;99.90
14079;DHT22;7115;50.150;8.568;2022-11-20T15:18:58;6.60;99.90
14079;DHT22;7115;50.150;8.568;2022-11-20T15:21:25;6.50;99.90
14079;DHT22;7115;50.150;8.568;2022-11-20T15:23:54;6.50;99.90
14079;DHT22;7115;50.150;8.568;2022-11-20T15:26:25;6.40;99.90
14079;DHT22;7115;50.150;8.568;2022-11-20T15:28:53;6.50;99.90
14079;DHT22;7115;50.150;8.568;2022-11-20T15:31:22;6.50;99.90
14079;DHT22;7115;50.150;8.568;2022-11-20T15:33:50;6.50;99.90
14079;DHT22;7115;50.150;8.568;2022-11-20T15:36:17;6.50;99.90
14079;DHT22;7115;50.150;8.568;2022-11-20T15:38:44;6.50;99.90
14079;DHT22;7115;50.150;8.568;2022-11-20T15:41:11;6.40;99.90
14079;DHT22;7115;50.150;8.568;2022-11-20T15:43:40;6.40;99.90
14079;DHT22;7115;50.150;8.568;2022-11-20T15:46:10;6.40;99.90
14079;DHT22;7115;50.150;8.568;2022-11-20T15:48:41;6.40;99.90
14079;DHT22;7115;50.150;8.568;2022-11-20T15:51:21;6.40;99.90
14079;DHT22;7115;50.150;8.568;2022-11-20T15:53:51;6.40;99.90
14079;DHT22;7115;50.150;8.568;2022-11-20T15:56:18;6.40;99.90
14079;DHT22;7115;50.150;8.568;2022-11-20T15:58:46;6.40;99.90
14079;DHT22;7115;50.150;8.568;2022-11-20T16:01:15;6.40;99.90
14079;DHT22;7115;50.150;8.568;2022-11-20T16:03:43;6.40;99.90
14079;DHT22;7115;50.150;8.568;2022-11-20T16:06:10;6.40;99.90
14079;DHT22;7115;50.150;8.568;2022-11-20T16:08:37;6.40;99.90
14079;DHT22;7115;50.150;8.568;2022-11-20T16:11:04;6.40;99.90
14079;DHT22;7115;50.150;8.568;2022-11-20T16:13:35;6.40;99.90
14079;DHT22;7115;50.150;8.568;2022-11-20T16:16:26;6.50;99.90
14079;DHT22;7115;50.150;8.568;2022-11-20T16:18:58;6.50;99.90
14079;DHT22;7115;50.150;8.568;2022-11-20T16:21:25;6.50;99.90
14079;DHT22;7115;50.150;8.568;2022-11-20T16:23:58;6.50;99.90